C07

Mack Mesa Airport

Mack, Colorado, USA
METAR KC07 170012Z AUTO 34006KT 10SM BKN085 OVC100 16/04 A3060 RMK AO2 LTG DSNT NE AND E
Observed Flight Rules
Jul-17 @ 00:12 UTC (11 minutes ago) Visual Flight Rules
Wind Visibility Clouds
340° at 6 knots 10 miles
  • Broken at 8,500' AGL
  • Overcast at 10,000' AGL
Temperatures Readings
Current 16°C / 61°F
Dewpoint 4°C / 39°F
Humidity 45%
Altimeter 30.6" Hg
Pressure 1036 hPa
Elevation 3224
METAR KC07 170012Z AUTO 34006KT 10SM BKN085 OVC100 16/04 A3060 RMK AO2 LTG DSNT NE AND E
Observed Flight Rules
Jul-17 @ 00:12 UTC
(11 minutes ago)
VFR
Wind Visibility
340° at 6 knots 10 miles
Clouds
  • Broken at 8,500' AGL
  • Overcast at 10,000' AGL
Temperature Dewpoint
16°C / 61°F 4°C / 39°F
Humidity Altimeter Pressure
45% 30.6" Hg 1036 hPa